sensor_id;sensor_type;location;lat;lon;timestamp;pressure;altitude;pressure_sealevel;temperature;humidity
8101;BME280;4093;53.470;9.832;2023-06-19T00:01:17;101105.25;;;24.55;60.35
8101;BME280;4093;53.470;9.832;2023-06-19T00:03:45;101110.97;;;24.99;60.30
8101;BME280;4093;53.470;9.832;2023-06-19T00:06:13;101100.69;;;24.70;60.19
8101;BME280;4093;53.470;9.832;2023-06-19T00:08:40;101105.41;;;25.27;58.65
8101;BME280;4093;53.470;9.832;2023-06-19T00:11:08;101101.75;;;25.17;59.09
8101;BME280;4093;53.470;9.832;2023-06-19T00:13:36;101102.28;;;24.73;59.83
8101;BME280;4093;53.470;9.832;2023-06-19T00:16:05;101080.94;;;24.87;59.17
8101;BME280;4093;53.470;9.832;2023-06-19T00:18:33;101084.41;;;24.38;61.60
8101;BME280;4093;53.470;9.832;2023-06-19T00:21:06;101077.56;;;24.35;61.08
8101;BME280;4093;53.470;9.832;2023-06-19T00:23:34;101082.19;;;24.32;61.99
8101;BME280;4093;53.470;9.832;2023-06-19T00:26:03;101080.09;;;24.11;62.51
8101;BME280;4093;53.470;9.832;2023-06-19T00:28:31;101082.53;;;24.14;62.32
8101;BME280;4093;53.470;9.832;2023-06-19T00:30:58;101073.34;;;24.07;62.10
8101;BME280;4093;53.470;9.832;2023-06-19T00:33:28;101075.19;;;24.56;60.75
8101;BME280;4093;53.470;9.832;2023-06-19T00:35:55;101076.22;;;24.79;60.50
8101;BME280;4093;53.470;9.832;2023-06-19T00:38:23;101067.91;;;24.47;61.03
8101;BME280;4093;53.470;9.832;2023-06-19T00:40:51;101020.69;;;24.17;61.73
8101;BME280;4093;53.470;9.832;2023-06-19T00:43:18;101072.97;;;24.37;61.87
8101;BME280;4093;53.470;9.832;2023-06-19T00:45:46;101078.81;;;24.55;61.38
8101;BME280;4093;53.470;9.832;2023-06-19T00:48:15;101064.63;;;24.31;61.05
8101;BME280;4093;53.470;9.832;2023-06-19T00:50:51;101078.41;;;24.49;61.41
8101;BME280;4093;53.470;9.832;2023-06-19T00:53:19;101073.97;;;24.49;61.81
8101;BME280;4093;53.470;9.832;2023-06-19T00:55:48;101075.44;;;24.28;62.00
8101;BME280;4093;53.470;9.832;2023-06-19T00:58:17;101060.63;;;24.63;61.01
8101;BME280;4093;53.470;9.832;2023-06-19T01:00:46;101060.94;;;23.42;64.60
8101;BME280;4093;53.470;9.832;2023-06-19T01:03:29;101055.97;;;24.16;62.30
8101;BME280;4093;53.470;9.832;2023-06-19T01:06:00;101053.97;;;24.07;62.34
8101;BME280;4093;53.470;9.832;2023-06-19T01:08:42;101044.31;;;23.67;63.43
8101;BME280;4093;53.470;9.832;2023-06-19T01:11:15;101039.84;;;23.55;64.56
8101;BME280;4093;53.470;9.832;2023-06-19T01:13:55;101027.47;;;23.70;63.56
8101;BME280;4093;53.470;9.832;2023-06-19T01:16:25;101014.31;;;24.32;62.01
8101;BME280;4093;53.470;9.832;2023-06-19T01:18:53;101021.63;;;24.16;62.14
8101;BME280;4093;53.470;9.832;2023-06-19T01:21:22;101016.94;;;23.55;64.04
8101;BME280;4093;53.470;9.832;2023-06-19T01:23:51;101028.88;;;23.61;63.57
8101;BME280;4093;53.470;9.832;2023-06-19T01:26:21;101020.75;;;23.51;64.11
8101;BME280;4093;53.470;9.832;2023-06-19T01:28:53;101019.31;;;23.86;63.35
8101;BME280;4093;53.470;9.832;2023-06-19T01:31:26;101015.94;;;23.96;63.43
8101;BME280;4093;53.470;9.832;2023-06-19T01:33:57;101024.69;;;23.97;63.43
8101;BME280;4093;53.470;9.832;2023-06-19T01:36:25;101022.44;;;24.79;61.01
8101;BME280;4093;53.470;9.832;2023-06-19T01:38:57;101018.00;;;25.03;59.85
8101;BME280;4093;53.470;9.832;2023-06-19T01:41:26;101011.41;;;24.85;60.02
8101;BME280;4093;53.470;9.832;2023-06-19T01:43:56;101005.78;;;24.65;60.81
8101;BME280;4093;53.470;9.832;2023-06-19T01:46:24;101008.19;;;24.44;61.10
8101;BME280;4093;53.470;9.832;2023-06-19T01:48:52;101005.00;;;24.39;60.99
8101;BME280;4093;53.470;9.832;2023-06-19T01:51:20;100999.63;;;24.15;61.84
8101;BME280;4093;53.470;9.832;2023-06-19T01:53:48;100994.84;;;23.56;62.96
8101;BME280;4093;53.470;9.832;2023-06-19T01:56:17;100999.06;;;23.46;63.48
8101;BME280;4093;53.470;9.832;2023-06-19T01:58:44;100994.38;;;23.90;62.93
8101;BME280;4093;53.470;9.832;2023-06-19T02:01:12;100991.59;;;24.30;61.68
8101;BME280;4093;53.470;9.832;2023-06-19T02:03:40;101001.25;;;24.05;61.96
8101;BME280;4093;53.470;9.832;2023-06-19T02:06:08;100989.16;;;24.27;61.09
8101;BME280;4093;53.470;9.832;2023-06-19T02:08:35;100990.78;;;24.53;60.29
8101;BME280;4093;53.470;9.832;2023-06-19T02:11:03;100983.59;;;23.80;62.14
8101;BME280;4093;53.470;9.832;2023-06-19T02:13:32;100986.56;;;23.88;62.14
8101;BME280;4093;53.470;9.832;2023-06-19T02:16:00;100995.19;;;23.52;63.91
8101;BME280;4093;53.470;9.832;2023-06-19T02:18:27;100976.59;;;23.53;63.91
8101;BME280;4093;53.470;9.832;2023-06-19T02:20:55;101006.31;;;23.17;64.95
8101;BME280;4093;53.470;9.832;2023-06-19T02:23:23;101001.25;;;23.80;63.24
8101;BME280;4093;53.470;9.832;2023-06-19T02:25:51;100993.66;;;24.00;62.68
8101;BME280;4093;53.470;9.832;2023-06-19T02:28:18;100986.38;;;24.28;61.53
8101;BME280;4093;53.470;9.832;2023-06-19T02:30:48;101000.75;;;24.37;61.10
8101;BME280;4093;53.470;9.832;2023-06-19T02:33:15;100995.44;;;23.74;62.88
8101;BME280;4093;53.470;9.832;2023-06-19T02:35:43;100992.97;;;24.22;61.50
8101;BME280;4093;53.470;9.832;2023-06-19T02:38:11;100989.81;;;23.66;62.93
8101;BME280;4093;53.470;9.832;2023-06-19T02:40:40;100987.19;;;23.14;65.25
8101;BME280;4093;53.470;9.832;2023-06-19T02:43:07;100986.00;;;23.58;63.14
8101;BME280;4093;53.470;9.832;2023-06-19T02:45:35;100993.34;;;23.80;63.27
8101;BME280;4093;53.470;9.832;2023-06-19T02:48:04;100979.53;;;22.96;65.20
8101;BME280;4093;53.470;9.832;2023-06-19T02:50:32;100987.06;;;23.55;63.96
8101;BME280;4093;53.470;9.832;2023-06-19T02:53:00;100983.94;;;23.75;62.85
8101;BME280;4093;53.470;9.832;2023-06-19T02:55:28;100971.41;;;23.26;64.39
8101;BME280;4093;53.470;9.832;2023-06-19T02:57:56;100984.75;;;23.63;64.23
8101;BME280;4093;53.470;9.832;2023-06-19T03:00:24;100974.38;;;24.11;62.36
8101;BME280;4093;53.470;9.832;2023-06-19T03:02:54;100970.78;;;24.62;60.71
8101;BME280;4093;53.470;9.832;2023-06-19T03:05:24;100959.34;;;24.24;60.85
8101;BME280;4093;53.470;9.832;2023-06-19T03:07:53;100965.22;;;24.04;61.95
8101;BME280;4093;53.470;9.832;2023-06-19T03:10:21;100971.13;;;24.08;62.72
8101;BME280;4093;53.470;9.832;2023-06-19T03:12:49;100972.69;;;24.10;62.67
8101;BME280;4093;53.470;9.832;2023-06-19T03:15:17;100970.06;;;23.72;63.84
8101;BME280;4093;53.470;9.832;2023-06-19T03:17:44;100963.72;;;22.96;65.50
8101;BME280;4093;53.470;9.832;2023-06-19T03:20:12;100970.53;;;23.13;65.25
8101;BME280;4093;53.470;9.832;2023-06-19T03:22:41;100969.50;;;23.28;65.39
8101;BME280;4093;53.470;9.832;2023-06-19T03:25:09;100955.75;;;23.11;65.57
8101;BME280;4093;53.470;9.832;2023-06-19T03:27:37;100964.19;;;23.16;65.82
8101;BME280;4093;53.470;9.832;2023-06-19T03:30:05;100951.81;;;23.94;63.09
8101;BME280;4093;53.470;9.832;2023-06-19T03:32:34;100954.28;;;24.21;62.21
8101;BME280;4093;53.470;9.832;2023-06-19T03:35:02;100939.06;;;24.12;62.26
8101;BME280;4093;53.470;9.832;2023-06-19T03:37:31;100930.25;;;23.75;62.73
8101;BME280;4093;53.470;9.832;2023-06-19T03:40:01;100937.84;;;23.41;63.63
8101;BME280;4093;53.470;9.832;2023-06-19T03:42:29;100936.69;;;23.58;63.83
8101;BME280;4093;53.470;9.832;2023-06-19T03:44:57;100932.97;;;23.22;64.67
8101;BME280;4093;53.470;9.832;2023-06-19T03:47:25;100934.53;;;23.25;64.09
8101;BME280;4093;53.470;9.832;2023-06-19T03:49:52;100931.06;;;23.37;63.67
8101;BME280;4093;53.470;9.832;2023-06-19T03:52:21;100931.25;;;23.21;63.52
8101;BME280;4093;53.470;9.832;2023-06-19T03:54:49;100940.56;;;23.27;63.69
8101;BME280;4093;53.470;9.832;2023-06-19T03:57:18;100932.97;;;23.22;63.41
8101;BME280;4093;53.470;9.832;2023-06-19T03:59:46;100933.16;;;23.06;63.74
8101;BME280;4093;53.470;9.832;2023-06-19T04:02:13;100938.88;;;23.26;63.44
8101;BME280;4093;53.470;9.832;2023-06-19T04:04:41;100935.72;;;23.46;62.37
8101;BME280;4093;53.470;9.832;2023-06-19T04:07:09;100929.16;;;23.26;63.00
8101;BME280;4093;53.470;9.832;2023-06-19T04:09:37;100946.44;;;23.70;62.50
8101;BME280;4093;53.470;9.832;2023-06-19T04:12:05;100924.94;;;23.37;62.53
8101;BME280;4093;53.470;9.832;2023-06-19T04:14:34;100939.13;;;23.74;62.05
8101;BME280;4093;53.470;9.832;2023-06-19T04:17:02;100937.84;;;23.67;62.26
8101;BME280;4093;53.470;9.832;2023-06-19T04:19:30;100942.63;;;23.74;61.62
8101;BME280;4093;53.470;9.832;2023-06-19T04:21:58;100920.72;;;23.47;62.30
8101;BME280;4093;53.470;9.832;2023-06-19T04:24:25;100930.38;;;23.73;62.13
8101;BME280;4093;53.470;9.832;2023-06-19T04:26:53;100931.72;;;23.92;61.83
8101;BME280;4093;53.470;9.832;2023-06-19T04:29:21;100930.91;;;24.15;60.53
8101;BME280;4093;53.470;9.832;2023-06-19T04:31:50;100934.91;;;23.71;61.46
8101;BME280;4093;53.470;9.832;2023-06-19T04:34:18;100903.19;;;23.46;62.02
8101;BME280;4093;53.470;9.832;2023-06-19T04:36:47;100935.28;;;24.16;61.15
8101;BME280;4093;53.470;9.832;2023-06-19T04:39:15;100933.22;;;23.83;61.54
8101;BME280;4093;53.470;9.832;2023-06-19T04:41:43;100928.00;;;23.43;62.50
8101;BME280;4093;53.470;9.832;2023-06-19T04:44:11;100919.78;;;23.22;63.38
8101;BME280;4093;53.470;9.832;2023-06-19T04:46:39;100912.13;;;22.78;64.11
8101;BME280;4093;53.470;9.832;2023-06-19T04:49:08;100933.06;;;23.33;62.91
8101;BME280;4093;53.470;9.832;2023-06-19T04:51:35;100929.06;;;23.41;63.23
8101;BME280;4093;53.470;9.832;2023-06-19T04:54:03;100938.16;;;23.62;62.38
8101;BME280;4093;53.470;9.832;2023-06-19T04:56:31;100925.97;;;23.21;63.22
8101;BME280;4093;53.470;9.832;2023-06-19T04:58:59;100934.31;;;23.28;63.43
8101;BME280;4093;53.470;9.832;2023-06-19T05:01:27;100936.78;;;23.44;63.29
8101;BME280;4093;53.470;9.832;2023-06-19T05:03:56;100929.59;;;23.20;63.40
8101;BME280;4093;53.470;9.832;2023-06-19T05:06:27;100936.63;;;23.07;63.84
8101;BME280;4093;53.470;9.832;2023-06-19T05:08:55;100936.50;;;22.96;64.19
8101;BME280;4093;53.470;9.832;2023-06-19T05:11:23;100941.91;;;23.07;63.87
8101;BME280;4093;53.470;9.832;2023-06-19T05:13:50;100935.38;;;22.85;64.62
8101;BME280;4093;53.470;9.832;2023-06-19T05:16:18;100961.88;;;23.24;63.93
8101;BME280;4093;53.470;9.832;2023-06-19T05:18:46;100942.34;;;22.86;64.89
8101;BME280;4093;53.470;9.832;2023-06-19T05:21:14;100959.16;;;23.38;63.78
8101;BME280;4093;53.470;9.832;2023-06-19T05:23:43;100962.34;;;23.82;62.40
8101;BME280;4093;53.470;9.832;2023-06-19T05:26:10;100954.31;;;23.58;62.75
8101;BME280;4093;53.470;9.832;2023-06-19T05:28:38;100961.91;;;23.62;62.69
8101;BME280;4093;53.470;9.832;2023-06-19T05:31:06;100958.78;;;23.95;61.61
8101;BME280;4093;53.470;9.832;2023-06-19T05:33:33;100962.34;;;24.07;61.29
8101;BME280;4093;53.470;9.832;2023-06-19T05:36:01;100964.06;;;23.95;61.73
8101;BME280;4093;53.470;9.832;2023-06-19T05:38:29;100978.19;;;24.69;59.63
8101;BME280;4093;53.470;9.832;2023-06-19T05:40:58;100946.94;;;23.88;60.87
8101;BME280;4093;53.470;9.832;2023-06-19T05:43:26;100981.97;;;24.65;59.69
8101;BME280;4093;53.470;9.832;2023-06-19T05:45:54;100981.13;;;24.65;59.89
8101;BME280;4093;53.470;9.832;2023-06-19T05:48:22;100988.88;;;25.03;59.79
8101;BME280;4093;53.470;9.832;2023-06-19T05:50:51;100989.13;;;25.00;59.47
8101;BME280;4093;53.470;9.832;2023-06-19T05:53:19;100981.88;;;25.15;58.94
8101;BME280;4093;53.470;9.832;2023-06-19T05:55:47;100983.91;;;24.63;59.88
8101;BME280;4093;53.470;9.832;2023-06-19T05:58:16;100978.91;;;24.22;63.29
8101;BME280;4093;53.470;9.832;2023-06-19T06:00:46;100984.25;;;23.71;65.98
8101;BME280;4093;53.470;9.832;2023-06-19T06:03:14;100994.94;;;23.69;66.52
8101;BME280;4093;53.470;9.832;2023-06-19T06:05:42;100992.09;;;23.32;66.97
8101;BME280;4093;53.470;9.832;2023-06-19T06:08:09;100996.72;;;23.16;69.35
8101;BME280;4093;53.470;9.832;2023-06-19T06:10:37;101001.94;;;23.56;68.66
8101;BME280;4093;53.470;9.832;2023-06-19T06:13:05;101018.47;;;23.98;66.89
8101;BME280;4093;53.470;9.832;2023-06-19T06:15:34;101023.19;;;24.31;65.02
8101;BME280;4093;53.470;9.832;2023-06-19T06:18:02;101020.81;;;23.50;68.01
8101;BME280;4093;53.470;9.832;2023-06-19T06:20:30;100984.84;;;22.82;70.31
8101;BME280;4093;53.470;9.832;2023-06-19T06:22:58;100975.75;;;22.17;72.32
8101;BME280;4093;53.470;9.832;2023-06-19T06:25:25;100982.88;;;22.15;70.89
8101;BME280;4093;53.470;9.832;2023-06-19T06:27:53;100997.56;;;22.34;71.09
8101;BME280;4093;53.470;9.832;2023-06-19T06:30:21;101021.34;;;23.69;67.67
8101;BME280;4093;53.470;9.832;2023-06-19T06:32:51;101001.59;;;23.22;69.21
8101;BME280;4093;53.470;9.832;2023-06-19T06:35:19;101013.06;;;23.21;70.25
8101;BME280;4093;53.470;9.832;2023-06-19T06:37:47;101014.25;;;23.30;69.67
8101;BME280;4093;53.470;9.832;2023-06-19T06:40:16;101007.69;;;23.23;69.96
8101;BME280;4093;53.470;9.832;2023-06-19T06:42:44;100996.00;;;23.00;70.50
8101;BME280;4093;53.470;9.832;2023-06-19T06:45:12;101008.41;;;23.65;67.23
8101;BME280;4093;53.470;9.832;2023-06-19T06:47:40;100992.53;;;23.39;68.56
8101;BME280;4093;53.470;9.832;2023-06-19T06:50:10;101000.81;;;23.60;67.36
8101;BME280;4093;53.470;9.832;2023-06-19T06:52:38;101014.31;;;24.45;65.35
8101;BME280;4093;53.470;9.832;2023-06-19T06:55:06;100984.56;;;23.92;64.87
8101;BME280;4093;53.470;9.832;2023-06-19T06:57:34;100997.81;;;24.29;64.35
8101;BME280;4093;53.470;9.832;2023-06-19T07:00:05;100973.19;;;24.15;63.32
8101;BME280;4093;53.470;9.832;2023-06-19T07:02:37;100976.94;;;23.87;65.24
8101;BME280;4093;53.470;9.832;2023-06-19T07:05:08;100993.38;;;24.29;64.12
8101;BME280;4093;53.470;9.832;2023-06-19T07:07:39;101010.66;;;24.96;62.14
8101;BME280;4093;53.470;9.832;2023-06-19T07:10:08;101007.06;;;25.21;61.44
8101;BME280;4093;53.470;9.832;2023-06-19T07:12:44;100981.97;;;24.41;64.13
8101;BME280;4093;53.470;9.832;2023-06-19T07:15:13;101010.34;;;24.87;63.08
8101;BME280;4093;53.470;9.832;2023-06-19T07:17:41;101025.59;;;25.67;60.93
8101;BME280;4093;53.470;9.832;2023-06-19T07:20:09;100996.13;;;25.01;62.56
8101;BME280;4093;53.470;9.832;2023-06-19T07:22:39;100989.28;;;24.62;64.97
8101;BME280;4093;53.470;9.832;2023-06-19T07:25:11;101005.13;;;24.75;64.80
8101;BME280;4093;53.470;9.832;2023-06-19T07:27:40;100995.31;;;24.64;63.80
8101;BME280;4093;53.470;9.832;2023-06-19T07:30:09;100999.72;;;24.27;64.42
8101;BME280;4093;53.470;9.832;2023-06-19T07:32:41;100993.72;;;25.09;61.88
8101;BME280;4093;53.470;9.832;2023-06-19T07:35:09;100997.63;;;24.44;64.15
8101;BME280;4093;53.470;9.832;2023-06-19T07:37:39;101019.38;;;25.33;62.39
8101;BME280;4093;53.470;9.832;2023-06-19T07:40:07;101013.50;;;25.87;61.19
8101;BME280;4093;53.470;9.832;2023-06-19T07:42:37;100993.53;;;25.12;62.44
8101;BME280;4093;53.470;9.832;2023-06-19T07:45:09;101020.97;;;26.04;61.04
8101;BME280;4093;53.470;9.832;2023-06-19T07:47:37;101010.31;;;28.40;54.91
8101;BME280;4093;53.470;9.832;2023-06-19T07:50:05;100982.69;;;28.91;51.79
8101;BME280;4093;53.470;9.832;2023-06-19T07:52:36;100959.34;;;27.42;55.27
8101;BME280;4093;53.470;9.832;2023-06-19T07:55:05;100972.75;;;27.62;55.23
8101;BME280;4093;53.470;9.832;2023-06-19T07:57:33;100979.75;;;28.94;52.71
8101;BME280;4093;53.470;9.832;2023-06-19T08:00:04;100961.69;;;28.28;53.25
8101;BME280;4093;53.470;9.832;2023-06-19T08:02:36;100967.44;;;27.83;54.85
8101;BME280;4093;53.470;9.832;2023-06-19T08:05:08;100962.63;;;27.77;53.83
8101;BME280;4093;53.470;9.832;2023-06-19T08:07:36;100968.97;;;29.05;51.82
8101;BME280;4093;53.470;9.832;2023-06-19T08:10:09;100964.59;;;28.85;51.43
8101;BME280;4093;53.470;9.832;2023-06-19T08:12:53;100957.63;;;27.83;54.12
8101;BME280;4093;53.470;9.832;2023-06-19T08:15:21;100968.78;;;29.36;52.79
8101;BME280;4093;53.470;9.832;2023-06-19T08:17:49;100977.50;;;30.67;48.81
8101;BME280;4093;53.470;9.832;2023-06-19T08:20:17;100968.31;;;31.24;47.69
8101;BME280;4093;53.470;9.832;2023-06-19T08:22:49;100941.31;;;29.82;50.68
8101;BME280;4093;53.470;9.832;2023-06-19T08:25:18;100955.59;;;30.18;50.03
8101;BME280;4093;53.470;9.832;2023-06-19T08:27:46;100956.34;;;32.22;46.71
8101;BME280;4093;53.470;9.832;2023-06-19T08:30:17;100939.81;;;31.85;45.85
8101;BME280;4093;53.470;9.832;2023-06-19T08:32:46;100930.97;;;31.32;47.05
8101;BME280;4093;53.470;9.832;2023-06-19T08:35:16;100948.50;;;31.87;47.60
8101;BME280;4093;53.470;9.832;2023-06-19T08:37:44;100941.91;;;31.21;47.62
8101;BME280;4093;53.470;9.832;2023-06-19T08:40:14;100952.56;;;32.41;46.06
8101;BME280;4093;53.470;9.832;2023-06-19T08:42:44;100953.56;;;33.71;44.03
8101;BME280;4093;53.470;9.832;2023-06-19T08:45:12;100949.31;;;33.85;44.64
8101;BME280;4093;53.470;9.832;2023-06-19T08:47:45;100941.56;;;34.61;42.83
8101;BME280;4093;53.470;9.832;2023-06-19T08:50:14;100940.13;;;34.73;42.95
8101;BME280;4093;53.470;9.832;2023-06-19T08:52:42;100941.81;;;34.43;42.86
8101;BME280;4093;53.470;9.832;2023-06-19T08:55:10;100940.88;;;34.04;43.72
8101;BME280;4093;53.470;9.832;2023-06-19T08:57:38;100950.00;;;32.23;46.02
8101;BME280;4093;53.470;9.832;2023-06-19T09:00:09;100943.66;;;33.72;44.50
8101;BME280;4093;53.470;9.832;2023-06-19T09:02:48;100955.53;;;31.09;46.52
8101;BME280;4093;53.470;9.832;2023-06-19T09:05:40;100960.88;;;31.09;46.17
8101;BME280;4093;53.470;9.832;2023-06-19T09:08:13;100968.69;;;30.85;47.29
8101;BME280;4093;53.470;9.832;2023-06-19T09:10:42;100949.75;;;30.05;47.71
8101;BME280;4093;53.470;9.832;2023-06-19T09:13:10;100969.19;;;29.97;48.19
8101;BME280;4093;53.470;9.832;2023-06-19T09:15:39;100980.19;;;29.85;49.38
8101;BME280;4093;53.470;9.832;2023-06-19T09:18:10;100972.16;;;29.38;49.33
8101;BME280;4093;53.470;9.832;2023-06-19T09:20:40;100966.06;;;30.93;47.29
8101;BME280;4093;53.470;9.832;2023-06-19T09:23:11;100955.44;;;31.37;48.35
8101;BME280;4093;53.470;9.832;2023-06-19T09:25:46;100966.13;;;31.37;47.02
8101;BME280;4093;53.470;9.832;2023-06-19T09:28:22;100987.19;;;31.66;48.08
8101;BME280;4093;53.470;9.832;2023-06-19T09:30:56;100968.19;;;31.25;45.83
8101;BME280;4093;53.470;9.832;2023-06-19T09:33:26;100974.91;;;32.16;45.69
8101;BME280;4093;53.470;9.832;2023-06-19T09:35:54;100945.31;;;30.69;47.70
8101;BME280;4093;53.470;9.832;2023-06-19T09:38:25;100984.47;;;30.33;49.70
8101;BME280;4093;53.470;9.832;2023-06-19T09:40:55;100992.91;;;30.74;48.49
8101;BME280;4093;53.470;9.832;2023-06-19T09:43:24;100978.34;;;31.66;45.95
8101;BME280;4093;53.470;9.832;2023-06-19T09:45:56;100982.75;;;32.60;45.71
8101;BME280;4093;53.470;9.832;2023-06-19T09:48:28;100978.44;;;33.00;44.94
8101;BME280;4093;53.470;9.832;2023-06-19T09:51:00;100956.34;;;32.31;45.59
8101;BME280;4093;53.470;9.832;2023-06-19T09:53:32;100966.56;;;32.27;45.82
8101;BME280;4093;53.470;9.832;2023-06-19T09:56:00;100975.47;;;32.36;44.53
8101;BME280;4093;53.470;9.832;2023-06-19T09:58:29;100953.81;;;32.21;46.00
8101;BME280;4093;53.470;9.832;2023-06-19T10:00:59;100972.97;;;32.34;46.62
8101;BME280;4093;53.470;9.832;2023-06-19T10:03:30;100989.34;;;32.31;45.72
8101;BME280;4093;53.470;9.832;2023-06-19T10:05:59;100976.94;;;32.22;46.29
8101;BME280;4093;53.470;9.832;2023-06-19T10:08:29;100984.47;;;32.85;46.24
8101;BME280;4093;53.470;9.832;2023-06-19T10:11:00;100967.38;;;32.86;43.98
8101;BME280;4093;53.470;9.832;2023-06-19T10:13:32;100967.38;;;33.03;44.03
8101;BME280;4093;53.470;9.832;2023-06-19T10:16:02;100969.47;;;31.99;44.77
8101;BME280;4093;53.470;9.832;2023-06-19T10:18:31;100975.69;;;31.04;48.37
8101;BME280;4093;53.470;9.832;2023-06-19T10:21:01;100967.66;;;31.04;49.62
8101;BME280;4093;53.470;9.832;2023-06-19T10:23:36;100993.19;;;32.29;45.79
8101;BME280;4093;53.470;9.832;2023-06-19T10:26:05;100984.81;;;33.23;45.10
8101;BME280;4093;53.470;9.832;2023-06-19T10:28:33;100960.69;;;33.15;44.40
8101;BME280;4093;53.470;9.832;2023-06-19T10:31:06;100961.97;;;31.69;45.98
8101;BME280;4093;53.470;9.832;2023-06-19T10:33:37;100974.38;;;30.27;49.49
8101;BME280;4093;53.470;9.832;2023-06-19T10:36:14;100979.81;;;31.16;47.13
8101;BME280;4093;53.470;9.832;2023-06-19T10:38:42;100976.63;;;32.33;47.05
8101;BME280;4093;53.470;9.832;2023-06-19T10:41:15;100968.69;;;32.66;45.24
8101;BME280;4093;53.470;9.832;2023-06-19T10:43:52;100969.41;;;33.01;43.66
8101;BME280;4093;53.470;9.832;2023-06-19T10:46:23;100980.81;;;33.11;44.34
8101;BME280;4093;53.470;9.832;2023-06-19T10:48:51;100951.25;;;31.69;45.31
8101;BME280;4093;53.470;9.832;2023-06-19T10:51:25;100962.03;;;31.85;45.00
8101;BME280;4093;53.470;9.832;2023-06-19T10:53:54;100976.84;;;31.97;46.31
8101;BME280;4093;53.470;9.832;2023-06-19T10:56:23;100963.34;;;32.66;43.80
8101;BME280;4093;53.470;9.832;2023-06-19T10:58:57;100956.63;;;32.62;44.00
8101;BME280;4093;53.470;9.832;2023-06-19T11:01:36;100960.00;;;32.72;43.51
8101;BME280;4093;53.470;9.832;2023-06-19T11:04:05;100953.28;;;33.33;42.09
8101;BME280;4093;53.470;9.832;2023-06-19T11:06:34;100945.06;;;32.61;44.07
8101;BME280;4093;53.470;9.832;2023-06-19T11:09:02;100955.31;;;33.15;43.44
8101;BME280;4093;53.470;9.832;2023-06-19T11:11:35;100956.78;;;32.68;44.41
8101;BME280;4093;53.470;9.832;2023-06-19T11:14:04;100958.50;;;32.86;43.39
8101;BME280;4093;53.470;9.832;2023-06-19T11:16:33;100942.44;;;32.94;43.72
8101;BME280;4093;53.470;9.832;2023-06-19T11:19:01;100949.66;;;33.10;43.90
8101;BME280;4093;53.470;9.832;2023-06-19T11:21:31;100909.91;;;32.81;44.74
8101;BME280;4093;53.470;9.832;2023-06-19T11:24:04;100962.66;;;32.80;43.89
8101;BME280;4093;53.470;9.832;2023-06-19T11:26:37;100953.44;;;32.75;44.19
8101;BME280;4093;53.470;9.832;2023-06-19T11:29:16;100929.03;;;32.94;43.96
8101;BME280;4093;53.470;9.832;2023-06-19T11:31:47;100955.88;;;32.35;45.98
8101;BME280;4093;53.470;9.832;2023-06-19T11:34:16;100966.72;;;33.09;45.54
8101;BME280;4093;53.470;9.832;2023-06-19T11:36:49;100964.00;;;32.92;44.39
8101;BME280;4093;53.470;9.832;2023-06-19T11:39:17;100929.13;;;32.43;44.91
8101;BME280;4093;53.470;9.832;2023-06-19T11:41:46;100966.56;;;31.85;46.83
8101;BME280;4093;53.470;9.832;2023-06-19T11:44:14;100981.47;;;31.61;47.91
8101;BME280;4093;53.470;9.832;2023-06-19T11:46:42;100979.34;;;32.41;46.03
8101;BME280;4093;53.470;9.832;2023-06-19T11:49:12;100988.22;;;31.99;47.75
8101;BME280;4093;53.470;9.832;2023-06-19T11:51:41;100981.28;;;32.23;46.81
8101;BME280;4093;53.470;9.832;2023-06-19T11:54:09;100993.00;;;32.30;47.73
8101;BME280;4093;53.470;9.832;2023-06-19T11:56:38;100978.09;;;32.86;46.89
8101;BME280;4093;53.470;9.832;2023-06-19T11:59:06;100988.94;;;32.68;47.56
8101;BME280;4093;53.470;9.832;2023-06-19T12:01:35;100976.41;;;32.85;45.96
8101;BME280;4093;53.470;9.832;2023-06-19T12:04:04;100992.03;;;32.98;45.88
8101;BME280;4093;53.470;9.832;2023-06-19T12:06:33;100973.88;;;32.09;46.92
8101;BME280;4093;53.470;9.832;2023-06-19T12:09:03;100987.31;;;32.25;47.89
8101;BME280;4093;53.470;9.832;2023-06-19T12:11:32;100987.41;;;32.49;47.30
8101;BME280;4093;53.470;9.832;2023-06-19T12:14:00;100998.16;;;32.74;46.43
8101;BME280;4093;53.470;9.832;2023-06-19T12:16:28;100989.56;;;32.46;47.68
8101;BME280;4093;53.470;9.832;2023-06-19T12:18:56;101003.13;;;31.50;49.09
8101;BME280;4093;53.470;9.832;2023-06-19T12:21:24;101003.44;;;31.29;50.00
8101;BME280;4093;53.470;9.832;2023-06-19T12:24:05;101007.94;;;31.98;48.46
8101;BME280;4093;53.470;9.832;2023-06-19T12:26:34;101004.34;;;32.66;47.35
8101;BME280;4093;53.470;9.832;2023-06-19T12:29:03;101004.88;;;32.19;47.53
8101;BME280;4093;53.470;9.832;2023-06-19T12:31:31;100994.81;;;32.21;47.36
8101;BME280;4093;53.470;9.832;2023-06-19T12:33:59;100999.47;;;32.11;47.75
8101;BME280;4093;53.470;9.832;2023-06-19T12:36:39;101001.19;;;31.60;48.76
8101;BME280;4093;53.470;9.832;2023-06-19T12:39:08;101001.59;;;31.47;49.96
8101;BME280;4093;53.470;9.832;2023-06-19T12:41:42;101016.31;;;32.38;47.55
8101;BME280;4093;53.470;9.832;2023-06-19T12:44:10;101003.31;;;31.13;49.89
8101;BME280;4093;53.470;9.832;2023-06-19T12:46:39;101017.44;;;31.67;48.36
8101;BME280;4093;53.470;9.832;2023-06-19T12:49:07;101019.38;;;32.51;46.27
8101;BME280;4093;53.470;9.832;2023-06-19T12:51:35;100996.31;;;32.66;47.04
8101;BME280;4093;53.470;9.832;2023-06-19T12:54:02;101005.56;;;33.46;46.13
8101;BME280;4093;53.470;9.832;2023-06-19T12:56:32;101008.88;;;32.74;47.19
8101;BME280;4093;53.470;9.832;2023-06-19T12:58:59;101010.91;;;32.88;46.36
8101;BME280;4093;53.470;9.832;2023-06-19T13:01:27;101016.66;;;33.26;47.47
8101;BME280;4093;53.470;9.832;2023-06-19T13:03:55;101001.81;;;32.48;47.84
8101;BME280;4093;53.470;9.832;2023-06-19T13:06:23;101024.00;;;32.91;47.34
8101;BME280;4093;53.470;9.832;2023-06-19T13:08:51;101018.63;;;32.75;47.76
8101;BME280;4093;53.470;9.832;2023-06-19T13:11:19;101019.09;;;32.20;48.45
8101;BME280;4093;53.470;9.832;2023-06-19T13:13:48;101028.59;;;31.36;50.20
8101;BME280;4093;53.470;9.832;2023-06-19T13:16:15;101050.06;;;32.31;48.02
8101;BME280;4093;53.470;9.832;2023-06-19T13:18:55;101042.56;;;31.48;49.68
8101;BME280;4093;53.470;9.832;2023-06-19T13:21:23;101055.22;;;31.90;48.95